createdAt,value
2023-02-06T00:00:12.967Z,102120.72
2023-02-06T00:02:42.751Z,102114.66
2023-02-06T00:05:11.012Z,102112.84
2023-02-06T00:07:39.129Z,102119.59
2023-02-06T00:10:08.509Z,102128.94
2023-02-06T00:12:36.713Z,102135.72
2023-02-06T00:15:05.381Z,102131.44
2023-02-06T00:17:36.285Z,102129.63
2023-02-06T00:20:07.476Z,102132.09
2023-02-06T00:22:35.764Z,102126.06
2023-02-06T00:25:04.060Z,102132.03
2023-02-06T00:27:32.379Z,102131.13
2023-02-06T00:30:00.606Z,102131.06
2023-02-06T00:32:28.728Z,102140.38
2023-02-06T00:34:57.021Z,102147.94
2023-02-06T00:37:26.611Z,102141.94
2023-02-06T00:39:54.768Z,102141.84
2023-02-06T00:42:22.990Z,102142.63
2023-02-06T00:44:51.200Z,102157.09
2023-02-06T00:47:19.437Z,102157.03
2023-02-06T00:49:47.679Z,102148.50
2023-02-06T00:52:15.803Z,102151.03
2023-02-06T00:54:45.351Z,102149.28
2023-02-06T00:57:14.288Z,102150.94
2023-02-06T00:59:42.837Z,102150.03
2023-02-06T01:02:11.390Z,102157.66
2023-02-06T01:04:40.079Z,102152.50
2023-02-06T01:07:08.713Z,102160.13
2023-02-06T01:09:37.665Z,102157.56
2023-02-06T01:12:08.802Z,102155.88
2023-02-06T01:14:37.262Z,102155.78
2023-02-06T01:17:05.550Z,102160.03
2023-02-06T01:19:33.742Z,102167.66
2023-02-06T01:22:02.249Z,102163.41
2023-02-06T01:24:30.374Z,102165.91
2023-02-06T01:26:58.544Z,102169.31
2023-02-06T01:29:28.144Z,102182.03
2023-02-06T01:31:56.333Z,102179.47
2023-02-06T01:34:24.490Z,102183.69
2023-02-06T01:36:52.652Z,102179.34
2023-02-06T01:39:20.733Z,102171.56
2023-02-06T01:41:50.916Z,102176.63
2023-02-06T01:44:22.726Z,102174.03
2023-02-06T01:46:54.977Z,102185.03
2023-02-06T01:49:25.801Z,102175.59
2023-02-06T01:51:54.555Z,102173.84
2023-02-06T01:54:22.752Z,102170.38
2023-02-06T01:56:53.525Z,102157.53
2023-02-06T01:59:21.764Z,102157.50
2023-02-06T02:01:50.120Z,102161.75
2023-02-06T02:04:22.244Z,102162.56
2023-02-06T02:06:59.531Z,102168.47
2023-02-06T02:09:27.967Z,102161.59
2023-02-06T02:11:56.196Z,102156.50
2023-02-06T02:14:24.442Z,102159.00
2023-02-06T02:17:02.260Z,102162.41
2023-02-06T02:20:13.993Z,102163.16
2023-02-06T02:23:12.192Z,102157.94
2023-02-06T02:26:17.015Z,102162.06
2023-02-06T02:29:20.048Z,102178.09
2023-02-06T02:32:30.033Z,102170.44
2023-02-06T02:35:29.804Z,102169.47
2023-02-06T02:38:11.587Z,102165.94
2023-02-06T02:40:46.955Z,102150.50
2023-02-06T02:43:21.565Z,102158.09
2023-02-06T02:45:52.607Z,102157.13
2023-02-06T02:48:24.491Z,102156.13
2023-02-06T02:50:54.508Z,102145.81
2023-02-06T02:53:23.069Z,102144.94
2023-02-06T02:55:51.185Z,102155.03
2023-02-06T02:58:22.699Z,102151.56
2023-02-06T03:00:54.767Z,102145.59
2023-02-06T03:03:24.278Z,102154.06
2023-02-06T03:06:21.509Z,102164.25
2023-02-06T03:08:53.716Z,102163.41
2023-02-06T03:11:24.280Z,102163.41
2023-02-06T03:13:57.859Z,102166.81
2023-02-06T03:16:29.691Z,102175.41
2023-02-06T03:19:01.713Z,102177.09
2023-02-06T03:21:31.430Z,102173.66
2023-02-06T03:24:01.919Z,102174.59
2023-02-06T03:26:30.627Z,102165.31
2023-02-06T03:29:01.880Z,102170.38
2023-02-06T03:31:33.388Z,102166.06
2023-02-06T03:34:05.063Z,102160.88
2023-02-06T03:36:34.643Z,102159.22
2023-02-06T03:39:02.865Z,102158.31
2023-02-06T03:41:33.826Z,102146.38
2023-02-06T03:44:02.031Z,102151.41
2023-02-06T03:46:30.236Z,102153.06
2023-02-06T03:49:00.959Z,102164.16
2023-02-06T03:51:32.226Z,102171.84
2023-02-06T03:54:03.374Z,102167.72
2023-02-06T03:56:34.681Z,102174.59
2023-02-06T03:59:02.822Z,102172.97
2023-02-06T04:01:31.055Z,102170.41
2023-02-06T04:03:59.268Z,102173.81
2023-02-06T04:06:27.533Z,102164.41
2023-02-06T04:08:55.818Z,102173.75
2023-02-06T04:11:25.299Z,102168.66
2023-02-06T04:13:53.449Z,102177.09
2023-02-06T04:16:21.634Z,102188.16
2023-02-06T04:18:51.106Z,102185.59
2023-02-06T04:21:19.253Z,102176.22
2023-02-06T04:23:47.411Z,102177.91
2023-02-06T04:26:15.551Z,102174.50
2023-02-06T04:28:45.119Z,102180.44
2023-02-06T04:31:13.374Z,102184.72
2023-02-06T04:33:41.549Z,102177.91
2023-02-06T04:36:10.113Z,102178.81
2023-02-06T04:38:38.363Z,102171.16
2023-02-06T04:41:07.327Z,102162.63
2023-02-06T04:43:35.751Z,102162.75
2023-02-06T04:46:05.896Z,102166.22
2023-02-06T04:48:34.062Z,102160.34
2023-02-06T04:51:02.208Z,102166.38
2023-02-06T04:53:30.405Z,102164.78
2023-02-06T04:56:03.588Z,102164.84
2023-02-06T04:58:31.764Z,102173.38
2023-02-06T05:00:59.963Z,102175.97
2023-02-06T05:03:29.638Z,102168.44
2023-02-06T05:05:59.545Z,102177.03
2023-02-06T05:08:27.784Z,102172.84
2023-02-06T05:10:56.522Z,102172.84
2023-02-06T05:13:24.844Z,102177.97
2023-02-06T05:15:53.144Z,102182.28
2023-02-06T05:18:21.415Z,102180.69
2023-02-06T05:20:50.940Z,102184.13
2023-02-06T05:23:19.267Z,102182.47
2023-02-06T05:25:47.441Z,102185.06
2023-02-06T05:28:15.580Z,102179.09
2023-02-06T05:30:44.138Z,102179.09
2023-02-06T05:33:12.272Z,102179.09
2023-02-06T05:35:41.557Z,102169.69
2023-02-06T05:38:11.027Z,102167.88
2023-02-06T05:40:39.183Z,102172.13
2023-02-06T05:43:07.465Z,102165.38
2023-02-06T05:45:36.216Z,102173.06
2023-02-06T05:48:04.988Z,102176.56
2023-02-06T05:50:33.265Z,102177.56
2023-02-06T05:53:01.427Z,102182.72
2023-02-06T05:55:30.958Z,102175.13
2023-02-06T05:57:59.656Z,102166.72
2023-02-06T06:00:27.901Z,102170.06
2023-02-06T06:02:56.111Z,102167.50
2023-02-06T06:05:25.813Z,102173.41
2023-02-06T06:07:54.021Z,102164.06
2023-02-06T06:10:22.129Z,102161.50
2023-02-06T06:12:51.639Z,102157.31
2023-02-06T06:15:20.003Z,102154.84
2023-02-06T06:17:48.232Z,102156.56
2023-02-06T06:20:16.483Z,102159.09
2023-02-06T06:22:44.664Z,102155.66
2023-02-06T06:25:12.801Z,102142.13
2023-02-06T06:27:40.976Z,102133.69
2023-02-06T06:30:12.429Z,102139.63
2023-02-06T06:32:40.958Z,102137.13
2023-02-06T06:35:09.321Z,102150.88
2023-02-06T06:37:37.507Z,102154.38
2023-02-06T06:40:06.369Z,102159.59
2023-02-06T06:42:35.216Z,102166.41
2023-02-06T06:45:03.748Z,102145.16
2023-02-06T06:47:33.490Z,102151.78
2023-02-06T06:50:01.758Z,102162.66
2023-02-06T06:52:29.956Z,102163.34
2023-02-06T06:54:58.374Z,102153.06
2023-02-06T06:57:26.799Z,102148.75
2023-02-06T06:59:54.916Z,102165.78
2023-02-06T07:02:23.434Z,102160.66
2023-02-06T07:04:52.956Z,102171.84
2023-02-06T07:07:21.239Z,102188.16
2023-02-06T07:09:49.512Z,102198.44
2023-02-06T07:12:17.691Z,102210.44
2023-02-06T07:14:45.965Z,102197.75
2023-02-06T07:17:14.246Z,102197.78
2023-02-06T07:19:42.657Z,102201.34
2023-02-06T07:22:12.147Z,102197.16
2023-02-06T07:24:40.441Z,102188.75
2023-02-06T07:27:08.727Z,102180.28
2023-02-06T07:29:37.708Z,102171.88
2023-02-06T07:32:06.250Z,102172.81
2023-02-06T07:34:35.152Z,102181.44
2023-02-06T07:37:03.321Z,102177.28
2023-02-06T07:39:32.849Z,102184.97
2023-02-06T07:42:00.991Z,102182.47
2023-02-06T07:44:40.689Z,102193.56
2023-02-06T07:47:10.431Z,102188.53
2023-02-06T07:49:38.601Z,102191.91
2023-02-06T07:52:07.401Z,102191.09
2023-02-06T07:54:37.204Z,102182.69
2023-02-06T07:57:05.489Z,102182.75
2023-02-06T07:59:34.061Z,102181.88
2023-02-06T08:02:02.259Z,102179.22
2023-02-06T08:04:35.184Z,102182.72
2023-02-06T08:07:03.564Z,102175.09
2023-02-06T08:09:32.339Z,102164.97
2023-02-06T08:12:01.846Z,102166.63
2023-02-06T08:14:31.211Z,102176.03
2023-02-06T08:16:59.425Z,102179.47
2023-02-06T08:19:27.703Z,102175.28
2023-02-06T08:21:55.930Z,102171.91
2023-02-06T08:24:24.673Z,102166.94
2023-02-06T08:26:52.884Z,102177.31
2023-02-06T08:29:22.524Z,102165.50
2023-02-06T08:31:50.831Z,102164.84
2023-02-06T08:34:18.975Z,102168.34
2023-02-06T08:36:47.243Z,102173.59
2023-02-06T08:39:17.381Z,102163.50
2023-02-06T08:41:45.658Z,102163.56
2023-02-06T08:44:16.201Z,102168.72
2023-02-06T08:46:47.735Z,102167.09
2023-02-06T08:49:18.083Z,102161.09
2023-02-06T08:51:46.490Z,102159.34
2023-02-06T08:54:16.396Z,102165.31
2023-02-06T08:56:44.694Z,102159.31
2023-02-06T08:59:14.020Z,102153.34
2023-02-06T09:01:42.573Z,102157.69
2023-02-06T09:04:13.461Z,102151.75
2023-02-06T09:06:43.816Z,102155.19
2023-02-06T09:09:12.837Z,102153.53
2023-02-06T09:11:41.165Z,102156.13
2023-02-06T09:14:10.151Z,102148.41
2023-02-06T09:16:38.541Z,102155.31
2023-02-06T09:19:06.872Z,102142.53
2023-02-06T09:21:36.620Z,102148.53
2023-02-06T09:24:06.551Z,102154.56
2023-02-06T09:26:44.833Z,102153.78
2023-02-06T09:29:21.966Z,102159.81
2023-02-06T09:31:50.238Z,102169.25
2023-02-06T09:34:18.357Z,102171.88
2023-02-06T09:36:48.027Z,102171.03
2023-02-06T09:39:16.333Z,102171.09
2023-02-06T09:41:45.671Z,102168.56
2023-02-06T09:44:18.382Z,102160.97
2023-02-06T09:46:49.864Z,102160.25
2023-02-06T09:49:22.141Z,102151.75
2023-02-06T09:52:27.920Z,102146.69
2023-02-06T09:55:00.944Z,102133.06
2023-02-06T09:57:37.500Z,102134.00
2023-02-06T10:00:13.706Z,102128.84
2023-02-06T10:03:00.100Z,102132.34
2023-02-06T10:05:36.695Z,102127.22
2023-02-06T10:08:18.029Z,102131.41
2023-02-06T10:10:49.029Z,102124.44
2023-02-06T10:13:21.483Z,102125.25
2023-02-06T10:15:51.463Z,102118.44
2023-02-06T10:18:24.776Z,102119.25
2023-02-06T10:20:56.239Z,102110.72
2023-02-06T10:23:31.324Z,102113.34
2023-02-06T10:26:06.574Z,102113.44
2023-02-06T10:28:35.877Z,102110.13
2023-02-06T10:31:24.999Z,102116.19
2023-02-06T10:33:59.380Z,102094.03
2023-02-06T10:36:47.259Z,102102.66
2023-02-06T10:39:43.046Z,102100.97
2023-02-06T10:42:18.296Z,102097.56
2023-02-06T10:44:51.565Z,102087.31
2023-02-06T10:47:30.098Z,102094.97
2023-02-06T10:50:02.438Z,102096.75
2023-02-06T10:52:33.569Z,102087.38
2023-02-06T10:55:06.310Z,102078.94
2023-02-06T10:57:34.552Z,102075.84
2023-02-06T11:00:03.286Z,102070.19
2023-02-06T11:02:39.805Z,102064.28
2023-02-06T11:05:10.288Z,102066.03
2023-02-06T11:07:40.513Z,102058.34
2023-02-06T11:10:13.365Z,102064.41
2023-02-06T11:12:44.348Z,102043.00
2023-02-06T11:15:21.376Z,102046.44
2023-02-06T11:17:49.687Z,102048.19
2023-02-06T11:20:21.842Z,102053.41
2023-02-06T11:22:52.969Z,102038.88
2023-02-06T11:25:29.933Z,102029.50
2023-02-06T11:27:58.570Z,102026.06
2023-02-06T11:30:34.958Z,102021.78
2023-02-06T11:33:06.029Z,102015.78
2023-02-06T11:35:38.319Z,102024.34
2023-02-06T11:38:15.290Z,102009.78
2023-02-06T11:40:44.849Z,102008.03
2023-02-06T11:43:21.799Z,102008.81
2023-02-06T11:45:52.224Z,102001.84
2023-02-06T11:48:36.560Z,102006.00
2023-02-06T11:51:05.211Z,102007.66
2023-02-06T11:53:34.042Z,101995.47
2023-02-06T11:56:07.611Z,102003.00
2023-02-06T11:58:36.037Z,101997.88
2023-02-06T12:01:06.277Z,102001.38
2023-02-06T12:03:37.132Z,101991.88
2023-02-06T12:06:12.532Z,101991.00
2023-02-06T12:08:49.310Z,101982.44
2023-02-06T12:11:23.459Z,101984.13
2023-02-06T12:13:56.481Z,101973.03
2023-02-06T12:16:25.998Z,101978.34
2023-02-06T12:18:56.439Z,101974.19
2023-02-06T12:21:34.796Z,101979.28
2023-02-06T12:24:03.989Z,101974.13
2023-02-06T12:26:35.172Z,101958.69
2023-02-06T12:29:06.092Z,101950.13
2023-02-06T12:31:40.011Z,101952.69
2023-02-06T12:34:14.811Z,101960.38
2023-02-06T12:36:53.437Z,101966.44
2023-02-06T12:39:23.170Z,101962.19
2023-02-06T12:42:11.310Z,101963.03
2023-02-06T12:44:42.071Z,101971.63
2023-02-06T12:47:18.663Z,101963.91
2023-02-06T12:49:54.409Z,101963.97
2023-02-06T12:52:25.808Z,101953.75
2023-02-06T12:55:06.393Z,101946.91
2023-02-06T12:57:37.218Z,101944.38
2023-02-06T13:00:28.360Z,101952.09
2023-02-06T13:03:34.134Z,101937.50
2023-02-06T13:06:13.578Z,101932.28
2023-02-06T13:08:47.158Z,101938.25
2023-02-06T13:11:29.605Z,101934.78
2023-02-06T13:14:07.914Z,101939.97
2023-02-06T13:16:43.544Z,101934.03
2023-02-06T13:19:32.267Z,101945.22
2023-02-06T13:22:45.186Z,101943.50
2023-02-06T13:25:53.404Z,101935.84
2023-02-06T13:28:47.662Z,101941.91
2023-02-06T13:31:29.249Z,101952.25
2023-02-06T13:34:00.928Z,101945.41
2023-02-06T13:36:49.223Z,101946.22
2023-02-06T13:39:32.333Z,101941.00
2023-02-06T13:42:33.018Z,101927.94
2023-02-06T13:45:01.994Z,101925.13
2023-02-06T13:48:08.621Z,101913.59
2023-02-06T13:50:57.669Z,101904.59
2023-02-06T13:53:40.439Z,101906.25
2023-02-06T13:56:27.792Z,101898.56
2023-02-06T13:58:56.467Z,101901.28
2023-02-06T14:01:29.901Z,101903.97
2023-02-06T14:03:59.787Z,101908.44
2023-02-06T14:06:47.675Z,101910.25
2023-02-06T14:09:36.031Z,101915.41
2023-02-06T14:12:29.411Z,101901.50
2023-02-06T14:15:15.244Z,101920.91
2023-02-06T14:17:57.228Z,101923.00
2023-02-06T14:20:35.197Z,101907.19
2023-02-06T14:23:11.133Z,101917.81
2023-02-06T14:26:07.743Z,101907.69
2023-02-06T14:28:46.558Z,101898.78
2023-02-06T14:31:23.884Z,101895.34
2023-02-06T14:34:05.685Z,101902.16
2023-02-06T14:37:03.329Z,101880.31
2023-02-06T14:39:47.045Z,101892.13
2023-02-06T14:42:20.752Z,101894.78
2023-02-06T14:44:53.847Z,101890.28
2023-02-06T14:47:25.704Z,101897.94
2023-02-06T14:49:53.868Z,101886.78
2023-02-06T14:52:26.352Z,101880.47
2023-02-06T14:54:54.714Z,101893.94
2023-02-06T14:57:26.171Z,101890.06
2023-02-06T14:59:56.805Z,101891.41
2023-02-06T15:02:28.788Z,101901.13
2023-02-06T15:04:57.082Z,101897.19
2023-02-06T15:07:31.109Z,101893.22
2023-02-06T15:10:06.172Z,101882.44
2023-02-06T15:12:34.855Z,101877.47
2023-02-06T15:15:16.447Z,101872.00
2023-02-06T15:17:44.766Z,101873.91
2023-02-06T15:20:28.152Z,101877.75
2023-02-06T15:23:11.642Z,101883.78
2023-02-06T15:25:54.788Z,101871.94
2023-02-06T15:28:24.597Z,101854.06
2023-02-06T15:30:54.591Z,101863.16
2023-02-06T15:33:25.490Z,101860.47
2023-02-06T15:35:55.552Z,101865.16
2023-02-06T15:38:26.227Z,101854.25
2023-02-06T15:40:57.060Z,101852.13
2023-02-06T15:43:26.028Z,101854.94
2023-02-06T15:45:56.513Z,101855.38
2023-02-06T15:48:33.760Z,101854.63
2023-02-06T15:51:03.504Z,101861.16
2023-02-06T15:53:35.824Z,101858.84
2023-02-06T15:56:05.160Z,101872.63
2023-02-06T15:58:33.684Z,101868.59
2023-02-06T16:01:02.240Z,101868.91
2023-02-06T16:03:31.090Z,101873.66
2023-02-06T16:05:59.399Z,101885.41
2023-02-06T16:08:30.892Z,101895.59
2023-02-06T16:11:02.516Z,101882.66
2023-02-06T16:13:31.683Z,101886.16
2023-02-06T16:16:22.246Z,101890.78
2023-02-06T16:18:52.236Z,101895.44
2023-02-06T16:21:27.450Z,101896.53
2023-02-06T16:24:06.896Z,101891.38
2023-02-06T16:26:44.174Z,101912.75
2023-02-06T16:29:24.463Z,101914.97
2023-02-06T16:31:59.886Z,101908.53
2023-02-06T16:34:36.270Z,101925.97
2023-02-06T16:37:10.836Z,101931.31
2023-02-06T16:39:40.117Z,101927.16
2023-02-06T16:42:17.315Z,101933.25
2023-02-06T16:44:48.156Z,101931.56
2023-02-06T16:47:18.796Z,101932.50
2023-02-06T16:49:49.623Z,101935.13
2023-02-06T16:52:20.859Z,101938.59
2023-02-06T16:54:48.996Z,101944.63
2023-02-06T16:57:29.785Z,101948.94
2023-02-06T16:59:58.013Z,101948.13
2023-02-06T17:02:27.252Z,101937.84
2023-02-06T17:04:55.656Z,101947.28
2023-02-06T17:07:26.214Z,101948.97
2023-02-06T17:09:55.414Z,101960.09
2023-02-06T17:12:25.209Z,101942.13
2023-02-06T17:14:53.520Z,101950.66
2023-02-06T17:17:22.943Z,101973.75
2023-02-06T17:19:52.168Z,101966.00
2023-02-06T17:22:20.532Z,101969.34
2023-02-06T17:24:49.019Z,101966.75
2023-02-06T17:27:18.905Z,101959.00
2023-02-06T17:29:48.778Z,101964.13
2023-02-06T17:32:21.636Z,101969.22
2023-02-06T17:34:51.289Z,101972.59
2023-02-06T17:37:21.607Z,101972.53
2023-02-06T17:39:50.796Z,101972.47
2023-02-06T17:42:19.017Z,101966.47
2023-02-06T17:44:48.621Z,101949.31
2023-02-06T17:47:17.261Z,101949.28
2023-02-06T17:49:47.272Z,101946.66
2023-02-06T17:52:18.275Z,101942.28
2023-02-06T17:54:46.733Z,101951.63
2023-02-06T17:57:14.933Z,101948.97
2023-02-06T17:59:43.534Z,101947.19
2023-02-06T18:02:14.662Z,101949.59
2023-02-06T18:04:43.308Z,101944.41
2023-02-06T18:07:11.606Z,101948.63
2023-02-06T18:09:42.035Z,101940.88
2023-02-06T18:12:10.644Z,101939.13
2023-02-06T18:14:39.841Z,101943.25
2023-02-06T18:17:08.030Z,101939.78
2023-02-06T18:19:42.099Z,101940.53
2023-02-06T18:22:10.906Z,101938.72
2023-02-06T18:24:39.202Z,101925.00
2023-02-06T18:27:07.603Z,101918.13
2023-02-06T18:29:49.056Z,101937.59
2023-02-06T18:32:18.624Z,101936.69
2023-02-06T18:34:48.333Z,101923.72
2023-02-06T18:37:16.573Z,101932.16
2023-02-06T18:39:44.935Z,101929.50
2023-02-06T18:42:30.948Z,101936.19
2023-02-06T18:44:59.156Z,101934.31
2023-02-06T18:47:27.368Z,101950.31
2023-02-06T18:49:57.329Z,101946.75
2023-02-06T18:52:25.457Z,101956.78
2023-02-06T18:54:53.627Z,101951.50
2023-02-06T18:57:21.803Z,101944.63
2023-02-06T18:59:50.006Z,101940.22
2023-02-06T19:02:18.212Z,101940.16
2023-02-06T19:04:46.518Z,101944.34
2023-02-06T19:07:16.595Z,101961.28
2023-02-06T19:09:44.743Z,101956.97
2023-02-06T19:12:12.980Z,101959.44
2023-02-06T19:14:41.162Z,101950.09
2023-02-06T19:17:09.446Z,101956.00
2023-02-06T19:19:37.607Z,101956.84
2023-02-06T19:22:05.852Z,101960.22
2023-02-06T19:24:35.596Z,101957.59
2023-02-06T19:27:03.782Z,101977.16
2023-02-06T19:29:36.298Z,101979.66
2023-02-06T19:32:05.544Z,101986.44
2023-02-06T19:34:36.002Z,101983.03
2023-02-06T19:37:04.824Z,101976.13
2023-02-06T19:39:34.302Z,101980.34
2023-02-06T19:42:06.507Z,101991.41
2023-02-06T19:44:35.176Z,101993.94
2023-02-06T19:47:03.433Z,101990.56
2023-02-06T19:49:31.603Z,101989.69
2023-02-06T19:51:59.781Z,101994.00
2023-02-06T19:54:27.983Z,101998.28
2023-02-06T19:56:56.240Z,102003.44
2023-02-06T19:59:27.122Z,102008.56
2023-02-06T20:01:56.481Z,102006.88
2023-02-06T20:04:26.096Z,101983.91
2023-02-06T20:06:55.769Z,101996.78
2023-02-06T20:09:24.432Z,101995.13
2023-02-06T20:11:52.622Z,102000.28
2023-02-06T20:14:21.413Z,102006.25
2023-02-06T20:16:51.069Z,102009.69
2023-02-06T20:19:20.727Z,102009.75
2023-02-06T20:21:50.505Z,102017.44
2023-02-06T20:24:21.792Z,102004.59
2023-02-06T20:26:53.009Z,102008.91
2023-02-06T20:29:25.632Z,102013.16
2023-02-06T20:31:55.311Z,102016.56
2023-02-06T20:34:23.648Z,102008.91
2023-02-06T20:36:51.866Z,102009.69
2023-02-06T20:39:20.257Z,102004.63
2023-02-06T20:41:49.520Z,102004.63
2023-02-06T20:44:18.085Z,102014.81
2023-02-06T20:46:46.483Z,101996.91
2023-02-06T20:49:22.773Z,101994.34
2023-02-06T20:51:51.194Z,102001.13
2023-02-06T20:54:19.833Z,102001.13
2023-02-06T20:56:47.980Z,102008.78
2023-02-06T20:59:21.327Z,102008.69
2023-02-06T21:01:49.754Z,102013.84
2023-02-06T21:04:19.576Z,102011.19
2023-02-06T21:06:49.865Z,102005.16
2023-02-06T21:09:18.229Z,102000.88
2023-02-06T21:11:47.601Z,101999.97
2023-02-06T21:14:16.174Z,102007.59
2023-02-06T21:16:44.752Z,102005.84
2023-02-06T21:19:15.022Z,102007.47
2023-02-06T21:21:46.380Z,101998.94
2023-02-06T21:24:14.865Z,101996.38
2023-02-06T21:26:43.161Z,101999.78
2023-02-06T21:29:11.572Z,101994.59
2023-02-06T21:31:39.795Z,101986.94
2023-02-06T21:34:09.713Z,101986.91
2023-02-06T21:36:38.970Z,101999.59
2023-02-06T21:39:08.858Z,101997.09
2023-02-06T21:41:37.423Z,102002.25
2023-02-06T21:44:06.220Z,101992.94
2023-02-06T21:46:34.476Z,101992.13
2023-02-06T21:49:02.731Z,101981.06
2023-02-06T21:51:31.380Z,101982.00
2023-02-06T21:53:59.615Z,101993.09
2023-02-06T21:56:29.336Z,101982.94
2023-02-06T21:58:57.701Z,101982.13
2023-02-06T22:01:27.919Z,101982.13
2023-02-06T22:03:56.795Z,101978.69
2023-02-06T22:06:25.054Z,101980.34
2023-02-06T22:08:55.841Z,101970.09
2023-02-06T22:11:25.671Z,101969.22
2023-02-06T22:13:59.021Z,101978.53
2023-02-06T22:16:28.509Z,101974.31
2023-02-06T22:18:56.894Z,101978.53
2023-02-06T22:21:27.158Z,101964.06
2023-02-06T22:23:57.492Z,101970.88
2023-02-06T22:26:26.100Z,101978.53
2023-02-06T22:28:55.560Z,101978.53
2023-02-06T22:31:25.538Z,101987.06
2023-02-06T22:33:54.017Z,101977.66
2023-02-06T22:36:23.882Z,101971.72
2023-02-06T22:38:54.802Z,101958.97
2023-02-06T22:41:22.974Z,101964.88
2023-02-06T22:43:51.699Z,101963.19
2023-02-06T22:46:23.494Z,101969.97
2023-02-06T22:48:51.833Z,101967.44
2023-02-06T22:51:20.197Z,101974.31
2023-02-06T22:53:48.413Z,101977.72
2023-02-06T22:56:31.309Z,101979.44
2023-02-06T22:59:02.261Z,101971.81
2023-02-06T23:01:33.261Z,101961.63
2023-02-06T23:04:02.324Z,101969.28
2023-02-06T23:06:31.733Z,101967.56
2023-02-06T23:09:00.198Z,101971.84
2023-02-06T23:11:28.412Z,101967.59
2023-02-06T23:13:58.544Z,101960.75
2023-02-06T23:16:26.899Z,101961.63
2023-02-06T23:18:56.497Z,101957.41
2023-02-06T23:21:25.787Z,101970.09
2023-02-06T23:23:55.486Z,101971.00
2023-02-06T23:26:23.712Z,101971.84
2023-02-06T23:28:51.890Z,101982.09
2023-02-06T23:31:20.101Z,101966.78
2023-02-06T23:33:48.277Z,101955.72
2023-02-06T23:36:20.206Z,101967.59
2023-02-06T23:38:48.900Z,101976.06
2023-02-06T23:41:19.060Z,101967.53
2023-02-06T23:43:51.087Z,101973.50
2023-02-06T23:46:20.395Z,101974.34
2023-02-06T23:48:48.805Z,101976.88
2023-02-06T23:51:21.653Z,101983.72
2023-02-06T23:53:49.937Z,101988.84
2023-02-06T23:56:23.527Z,101987.09
2023-02-06T23:58:52.098Z,101977.75
